sensor_id;sensor_type;location;lat;lon;timestamp;pressure;altitude;pressure_sealevel;temperature;humidity
63285;BME280;49409;55.708;37.522;2022-11-20T00:00:24;99365.59;;;4.45;53.62
63285;BME280;49409;55.708;37.522;2022-11-20T00:02:49;99347.19;;;4.34;52.88
63285;BME280;49409;55.708;37.522;2022-11-20T00:05:15;99376.91;;;4.50;53.11
63285;BME280;49409;55.708;37.522;2022-11-20T00:07:40;99352.31;;;4.43;52.54
63285;BME280;49409;55.708;37.522;2022-11-20T00:10:06;99376.59;;;4.59;53.09
63285;BME280;49409;55.708;37.522;2022-11-20T00:12:32;99338.22;;;4.34;52.68
63285;BME280;49409;55.708;37.522;2022-11-20T00:14:58;99375.00;;;4.54;52.70
63285;BME280;49409;55.708;37.522;2022-11-20T00:17:23;99375.25;;;4.42;53.14
63285;BME280;49409;55.708;37.522;2022-11-20T00:19:49;99368.50;;;4.25;53.02
63285;BME280;49409;55.708;37.522;2022-11-20T00:22:14;99376.81;;;4.40;53.20
63285;BME280;49409;55.708;37.522;2022-11-20T00:24:40;99381.84;;;4.37;53.50
63285;BME280;49409;55.708;37.522;2022-11-20T00:27:05;99354.47;;;4.23;53.43
63285;BME280;49409;55.708;37.522;2022-11-20T00:29:31;99387.66;;;4.36;53.48
63285;BME280;49409;55.708;37.522;2022-11-20T00:31:56;99375.50;;;4.23;53.32
63285;BME280;49409;55.708;37.522;2022-11-20T00:34:22;99362.97;;;4.18;52.91
63285;BME280;49409;55.708;37.522;2022-11-20T00:36:47;99357.97;;;4.24;52.87
63285;BME280;49409;55.708;37.522;2022-11-20T00:39:13;99374.72;;;4.26;53.23
63285;BME280;49409;55.708;37.522;2022-11-20T00:41:38;99376.22;;;4.20;53.40
63285;BME280;49409;55.708;37.522;2022-11-20T00:44:04;99365.28;;;4.16;52.96
63285;BME280;49409;55.708;37.522;2022-11-20T00:46:29;99355.13;;;4.09;53.26
63285;BME280;49409;55.708;37.522;2022-11-20T00:48:55;99366.91;;;4.21;53.04
63285;BME280;49409;55.708;37.522;2022-11-20T00:51:22;99383.34;;;4.31;52.97
63285;BME280;49409;55.708;37.522;2022-11-20T00:53:48;99370.53;;;4.35;52.94
63285;BME280;49409;55.708;37.522;2022-11-20T00:56:16;99377.44;;;4.26;52.86
63285;BME280;49409;55.708;37.522;2022-11-20T00:58:43;99362.88;;;4.07;53.19
63285;BME280;49409;55.708;37.522;2022-11-20T01:01:14;99385.53;;;4.15;53.65
63285;BME280;49409;55.708;37.522;2022-11-20T01:03:43;99387.84;;;4.16;53.36
63285;BME280;49409;55.708;37.522;2022-11-20T01:06:11;99379.31;;;4.18;52.53
63285;BME280;49409;55.708;37.522;2022-11-20T01:08:38;99383.16;;;4.13;53.20
63285;BME280;49409;55.708;37.522;2022-11-20T01:11:06;99386.31;;;4.15;53.51
63285;BME280;49409;55.708;37.522;2022-11-20T01:13:32;99369.00;;;4.01;52.97
63285;BME280;49409;55.708;37.522;2022-11-20T01:18:29;99377.72;;;4.13;52.80
63285;BME280;49409;55.708;37.522;2022-11-20T01:20:55;99362.78;;;4.00;52.23
63285;BME280;49409;55.708;37.522;2022-11-20T01:23:20;99352.25;;;3.95;52.63
63285;BME280;49409;55.708;37.522;2022-11-20T01:25:46;99388.63;;;4.13;52.33
63285;BME280;49409;55.708;37.522;2022-11-20T01:28:11;99375.69;;;4.07;52.80
63285;BME280;49409;55.708;37.522;2022-11-20T01:30:37;99385.38;;;4.04;52.14
63285;BME280;49409;55.708;37.522;2022-11-20T01:33:02;99387.44;;;4.11;52.59
63285;BME280;49409;55.708;37.522;2022-11-20T01:35:28;99366.69;;;3.99;52.21
63285;BME280;49409;55.708;37.522;2022-11-20T01:37:53;99363.56;;;3.97;52.14
63285;BME280;49409;55.708;37.522;2022-11-20T01:40:19;99385.47;;;4.11;52.50
63285;BME280;49409;55.708;37.522;2022-11-20T01:42:53;99369.06;;;4.04;52.04
63285;BME280;49409;55.708;37.522;2022-11-20T01:45:59;99400.31;;;4.17;52.82
63285;BME280;49409;55.708;37.522;2022-11-20T01:48:40;99385.34;;;4.01;52.27
63285;BME280;49409;55.708;37.522;2022-11-20T01:51:16;99398.75;;;4.16;51.70
63285;BME280;49409;55.708;37.522;2022-11-20T01:53:42;99402.56;;;4.08;51.79
63285;BME280;49409;55.708;37.522;2022-11-20T01:56:10;99372.75;;;3.85;51.97
63285;BME280;49409;55.708;37.522;2022-11-20T01:58:40;99416.06;;;3.97;52.12
63285;BME280;49409;55.708;37.522;2022-11-20T02:01:06;99411.78;;;4.00;52.68
63285;BME280;49409;55.708;37.522;2022-11-20T02:03:32;99423.16;;;4.06;52.27
63285;BME280;49409;55.708;37.522;2022-11-20T02:06:05;99395.72;;;3.88;51.86
63285;BME280;49409;55.708;37.522;2022-11-20T02:08:34;99425.75;;;3.95;51.69
63285;BME280;49409;55.708;37.522;2022-11-20T02:11:00;99362.06;;;3.39;52.31
63285;BME280;49409;55.708;37.522;2022-11-20T02:13:26;99431.75;;;3.77;52.26
63285;BME280;49409;55.708;37.522;2022-11-20T02:16:25;99420.06;;;3.77;52.23
63285;BME280;49409;55.708;37.522;2022-11-20T02:18:51;99416.25;;;3.82;52.24
63285;BME280;49409;55.708;37.522;2022-11-20T02:21:27;99402.84;;;3.66;52.18
63285;BME280;49409;55.708;37.522;2022-11-20T02:24:21;99431.81;;;3.85;52.12
63285;BME280;49409;55.708;37.522;2022-11-20T02:26:57;99440.41;;;3.87;52.55
63285;BME280;49409;55.708;37.522;2022-11-20T02:29:46;99449.81;;;3.93;52.31
63285;BME280;49409;55.708;37.522;2022-11-20T02:32:27;99445.53;;;3.92;52.03
63285;BME280;49409;55.708;37.522;2022-11-20T02:34:54;99452.00;;;3.80;51.92
63285;BME280;49409;55.708;37.522;2022-11-20T02:37:20;99441.88;;;3.81;52.13
63285;BME280;49409;55.708;37.522;2022-11-20T02:39:55;99433.31;;;3.78;51.68
63285;BME280;49409;55.708;37.522;2022-11-20T02:42:20;99443.47;;;3.82;52.21
63285;BME280;49409;55.708;37.522;2022-11-20T02:44:46;99421.84;;;3.62;51.80
63285;BME280;49409;55.708;37.522;2022-11-20T02:47:11;99431.34;;;3.75;51.67
63285;BME280;49409;55.708;37.522;2022-11-20T02:49:37;99434.06;;;3.75;52.54
63285;BME280;49409;55.708;37.522;2022-11-20T02:52:02;99447.03;;;3.86;52.64
63285;BME280;49409;55.708;37.522;2022-11-20T02:54:28;99444.31;;;3.86;52.08
63285;BME280;49409;55.708;37.522;2022-11-20T02:56:53;99449.38;;;3.87;51.42
63285;BME280;49409;55.708;37.522;2022-11-20T02:59:19;99441.16;;;3.84;51.84
63285;BME280;49409;55.708;37.522;2022-11-20T03:01:44;99430.53;;;3.75;52.71
63285;BME280;49409;55.708;37.522;2022-11-20T03:04:10;99437.28;;;3.85;52.02
63285;BME280;49409;55.708;37.522;2022-11-20T03:06:35;99452.13;;;3.91;51.72
63285;BME280;49409;55.708;37.522;2022-11-20T03:09:01;99429.44;;;3.80;51.35
63285;BME280;49409;55.708;37.522;2022-11-20T03:11:26;99452.09;;;3.87;51.66
63285;BME280;49409;55.708;37.522;2022-11-20T03:13:52;99434.84;;;3.76;51.84
63285;BME280;49409;55.708;37.522;2022-11-20T03:16:21;99454.13;;;3.94;52.08
63285;BME280;49409;55.708;37.522;2022-11-20T03:18:48;99463.00;;;3.91;51.61
63285;BME280;49409;55.708;37.522;2022-11-20T03:21:15;99425.28;;;3.59;51.89
63285;BME280;49409;55.708;37.522;2022-11-20T03:23:41;99453.59;;;3.85;51.96
63285;BME280;49409;55.708;37.522;2022-11-20T03:26:18;99442.66;;;3.77;52.46
63285;BME280;49409;55.708;37.522;2022-11-20T03:31:19;99467.50;;;3.76;51.93
63285;BME280;49409;55.708;37.522;2022-11-20T03:33:45;99448.63;;;3.60;52.14
63285;BME280;49409;55.708;37.522;2022-11-20T03:36:13;99439.28;;;3.57;51.54
63285;BME280;49409;55.708;37.522;2022-11-20T03:38:40;99457.31;;;3.69;51.89
63285;BME280;49409;55.708;37.522;2022-11-20T03:41:11;99464.94;;;3.60;51.98
63285;BME280;49409;55.708;37.522;2022-11-20T03:43:37;99398.84;;;3.29;52.03
63285;BME280;49409;55.708;37.522;2022-11-20T03:46:03;99458.88;;;3.70;51.86
63285;BME280;49409;55.708;37.522;2022-11-20T03:48:28;99444.00;;;3.64;51.78
63285;BME280;49409;55.708;37.522;2022-11-20T03:53:45;99473.00;;;3.80;51.56
63285;BME280;49409;55.708;37.522;2022-11-20T03:56:12;99476.84;;;3.78;51.98
63285;BME280;49409;55.708;37.522;2022-11-20T03:58:39;99485.44;;;3.81;51.85
63285;BME280;49409;55.708;37.522;2022-11-20T04:01:28;99483.97;;;3.87;51.89
63285;BME280;49409;55.708;37.522;2022-11-20T04:03:55;99468.19;;;3.69;50.96
63285;BME280;49409;55.708;37.522;2022-11-20T04:06:24;99481.47;;;3.74;51.78
63285;BME280;49409;55.708;37.522;2022-11-20T04:08:50;99480.34;;;3.75;51.68
63285;BME280;49409;55.708;37.522;2022-11-20T04:11:19;99455.31;;;3.66;51.59
63285;BME280;49409;55.708;37.522;2022-11-20T04:13:50;99466.25;;;3.70;52.23
63285;BME280;49409;55.708;37.522;2022-11-20T04:16:16;99472.84;;;3.69;51.22
63285;BME280;49409;55.708;37.522;2022-11-20T04:18:42;99474.34;;;3.66;51.55
63285;BME280;49409;55.708;37.522;2022-11-20T04:21:08;99471.22;;;3.64;51.94
63285;BME280;49409;55.708;37.522;2022-11-20T04:23:34;99489.63;;;3.74;52.06
63285;BME280;49409;55.708;37.522;2022-11-20T04:26:07;99502.59;;;3.85;51.10
63285;BME280;49409;55.708;37.522;2022-11-20T04:28:33;99501.09;;;3.87;52.20
63285;BME280;49409;55.708;37.522;2022-11-20T04:31:10;99505.53;;;3.99;51.39
63285;BME280;49409;55.708;37.522;2022-11-20T04:33:37;99512.13;;;3.98;51.91
63285;BME280;49409;55.708;37.522;2022-11-20T04:36:05;99508.63;;;3.97;51.70
63285;BME280;49409;55.708;37.522;2022-11-20T04:38:31;99519.56;;;4.01;51.45
63285;BME280;49409;55.708;37.522;2022-11-20T04:40:58;99509.72;;;3.93;51.43
63285;BME280;49409;55.708;37.522;2022-11-20T04:43:24;99492.47;;;3.82;51.53
63285;BME280;49409;55.708;37.522;2022-11-20T04:45:51;99469.97;;;3.58;51.31
63285;BME280;49409;55.708;37.522;2022-11-20T04:48:16;99529.03;;;3.84;51.14
63285;BME280;49409;55.708;37.522;2022-11-20T04:50:42;99544.69;;;3.91;51.06
63285;BME280;49409;55.708;37.522;2022-11-20T04:53:07;99534.13;;;3.86;51.49
63285;BME280;49409;55.708;37.522;2022-11-20T04:55:33;99514.47;;;3.69;50.79
63285;BME280;49409;55.708;37.522;2022-11-20T04:57:58;99545.31;;;3.81;51.08
63285;BME280;49409;55.708;37.522;2022-11-20T05:00:24;99518.63;;;3.63;50.79
63285;BME280;49409;55.708;37.522;2022-11-20T05:02:49;99540.63;;;3.77;51.09
63285;BME280;49409;55.708;37.522;2022-11-20T05:05:15;99531.16;;;3.68;51.12
63285;BME280;49409;55.708;37.522;2022-11-20T05:07:40;99547.63;;;3.78;51.04
63285;BME280;49409;55.708;37.522;2022-11-20T05:10:06;99484.09;;;3.41;51.26
63285;BME280;49409;55.708;37.522;2022-11-20T05:12:32;99485.69;;;3.42;51.53
63285;BME280;49409;55.708;37.522;2022-11-20T05:14:57;99556.69;;;3.86;50.79
63285;BME280;49409;55.708;37.522;2022-11-20T05:17:23;99566.03;;;3.89;50.61
63285;BME280;49409;55.708;37.522;2022-11-20T05:19:48;99561.75;;;3.88;50.96
63285;BME280;49409;55.708;37.522;2022-11-20T05:22:14;99560.22;;;3.90;50.91
63285;BME280;49409;55.708;37.522;2022-11-20T05:24:39;99534.44;;;3.81;51.32
63285;BME280;49409;55.708;37.522;2022-11-20T05:27:05;99543.00;;;3.83;50.40
63285;BME280;49409;55.708;37.522;2022-11-20T05:29:30;99548.50;;;3.86;51.17
63285;BME280;49409;55.708;37.522;2022-11-20T05:31:56;99569.72;;;4.00;51.40
63285;BME280;49409;55.708;37.522;2022-11-20T05:34:21;99551.28;;;3.90;51.17
63285;BME280;49409;55.708;37.522;2022-11-20T05:36:47;99577.81;;;3.96;50.79
63285;BME280;49409;55.708;37.522;2022-11-20T05:39:12;99589.53;;;4.01;50.75
63285;BME280;49409;55.708;37.522;2022-11-20T05:41:38;99591.53;;;4.04;50.53
63285;BME280;49409;55.708;37.522;2022-11-20T05:44:03;99577.88;;;4.00;50.55
63285;BME280;49409;55.708;37.522;2022-11-20T05:46:29;99567.31;;;3.95;50.82
63285;BME280;49409;55.708;37.522;2022-11-20T05:48:56;99586.53;;;4.06;50.81
63285;BME280;49409;55.708;37.522;2022-11-20T05:51:22;99590.84;;;4.10;50.56
63285;BME280;49409;55.708;37.522;2022-11-20T05:53:47;99594.03;;;4.16;50.83
63285;BME280;49409;55.708;37.522;2022-11-20T05:56:17;99601.03;;;4.13;50.57
63285;BME280;49409;55.708;37.522;2022-11-20T05:58:44;99604.16;;;4.15;50.97
63285;BME280;49409;55.708;37.522;2022-11-20T06:01:17;99619.81;;;4.22;50.79
63285;BME280;49409;55.708;37.522;2022-11-20T06:03:43;99619.44;;;4.24;50.64
63285;BME280;49409;55.708;37.522;2022-11-20T06:06:11;99624.53;;;4.25;50.83
63285;BME280;49409;55.708;37.522;2022-11-20T06:08:37;99606.41;;;4.10;50.07
63285;BME280;49409;55.708;37.522;2022-11-20T06:11:05;99592.31;;;4.04;50.39
63285;BME280;49409;55.708;37.522;2022-11-20T06:13:31;99619.72;;;4.15;50.64
63285;BME280;49409;55.708;37.522;2022-11-20T06:15:56;99628.31;;;4.17;50.53
63285;BME280;49409;55.708;37.522;2022-11-20T06:18:22;99632.28;;;4.23;50.40
63285;BME280;49409;55.708;37.522;2022-11-20T06:20:47;99615.34;;;4.10;51.03
63285;BME280;49409;55.708;37.522;2022-11-20T06:23:13;99635.47;;;4.29;50.34
63285;BME280;49409;55.708;37.522;2022-11-20T06:25:39;99650.16;;;4.21;50.65
63285;BME280;49409;55.708;37.522;2022-11-20T06:28:05;99611.72;;;3.99;50.79
63285;BME280;49409;55.708;37.522;2022-11-20T06:30:30;99657.28;;;4.29;50.68
63285;BME280;49409;55.708;37.522;2022-11-20T06:32:56;99651.06;;;4.32;49.76
63285;BME280;49409;55.708;37.522;2022-11-20T06:35:22;99662.38;;;4.34;50.20
63285;BME280;49409;55.708;37.522;2022-11-20T06:37:47;99656.22;;;4.37;50.44
63285;BME280;49409;55.708;37.522;2022-11-20T06:40:12;99654.63;;;4.36;50.13
63285;BME280;49409;55.708;37.522;2022-11-20T06:42:38;99629.91;;;4.22;50.00
63285;BME280;49409;55.708;37.522;2022-11-20T06:45:04;99636.22;;;4.26;50.25
63285;BME280;49409;55.708;37.522;2022-11-20T06:47:29;99647.69;;;4.39;50.20
63285;BME280;49409;55.708;37.522;2022-11-20T06:49:55;99615.09;;;4.19;49.85
63285;BME280;49409;55.708;37.522;2022-11-20T06:52:20;99652.84;;;4.47;50.14
63285;BME280;49409;55.708;37.522;2022-11-20T06:54:46;99612.84;;;4.25;49.97
63285;BME280;49409;55.708;37.522;2022-11-20T06:57:11;99647.41;;;4.47;49.83
63285;BME280;49409;55.708;37.522;2022-11-20T06:59:37;99634.91;;;4.46;50.36
63285;BME280;49409;55.708;37.522;2022-11-20T07:02:02;99633.38;;;4.45;50.29
63285;BME280;49409;55.708;37.522;2022-11-20T07:04:28;99627.19;;;4.48;50.00
63285;BME280;49409;55.708;37.522;2022-11-20T07:06:53;99620.56;;;4.49;50.30
63285;BME280;49409;55.708;37.522;2022-11-20T07:09:18;99629.63;;;4.57;49.30
63285;BME280;49409;55.708;37.522;2022-11-20T07:11:44;99618.25;;;4.51;48.96
63285;BME280;49409;55.708;37.522;2022-11-20T07:14:09;99639.66;;;4.49;49.83
63285;BME280;49409;55.708;37.522;2022-11-20T07:16:35;99641.94;;;4.47;49.27
63285;BME280;49409;55.708;37.522;2022-11-20T07:19:01;99637.28;;;4.48;49.79
63285;BME280;49409;55.708;37.522;2022-11-20T07:21:26;99626.75;;;4.46;49.89
63285;BME280;49409;55.708;37.522;2022-11-20T07:23:52;99638.56;;;4.57;49.58
63285;BME280;49409;55.708;37.522;2022-11-20T07:26:17;99663.22;;;4.65;49.12
63285;BME280;49409;55.708;37.522;2022-11-20T07:28:46;99648.41;;;4.66;49.79
63285;BME280;49409;55.708;37.522;2022-11-20T07:31:11;99642.88;;;4.59;48.98
63285;BME280;49409;55.708;37.522;2022-11-20T07:33:38;99660.13;;;4.66;49.27
63285;BME280;49409;55.708;37.522;2022-11-20T07:36:04;99607.84;;;4.30;49.66
63285;BME280;49409;55.708;37.522;2022-11-20T07:38:30;99675.34;;;4.71;49.27
63285;BME280;49409;55.708;37.522;2022-11-20T07:40:56;99621.94;;;4.36;49.23
63285;BME280;49409;55.708;37.522;2022-11-20T07:43:23;99667.50;;;4.66;49.51
63285;BME280;49409;55.708;37.522;2022-11-20T07:45:49;99676.91;;;4.72;49.57
63285;BME280;49409;55.708;37.522;2022-11-20T07:48:14;99648.34;;;4.59;49.06
63285;BME280;49409;55.708;37.522;2022-11-20T07:50:40;99653.88;;;4.66;48.95
63285;BME280;49409;55.708;37.522;2022-11-20T07:53:06;99678.59;;;4.80;49.06
63285;BME280;49409;55.708;37.522;2022-11-20T07:55:32;99652.78;;;4.70;49.35
63285;BME280;49409;55.708;37.522;2022-11-20T07:57:57;99670.41;;;4.80;49.32
63285;BME280;49409;55.708;37.522;2022-11-20T08:00:24;99672.38;;;4.83;49.11
63285;BME280;49409;55.708;37.522;2022-11-20T08:02:50;99658.59;;;4.69;49.35
63285;BME280;49409;55.708;37.522;2022-11-20T08:05:16;99668.00;;;4.75;48.80
63285;BME280;49409;55.708;37.522;2022-11-20T08:07:42;99690.81;;;4.90;49.50
63285;BME280;49409;55.708;37.522;2022-11-20T08:10:11;99672.06;;;4.88;48.87
63285;BME280;49409;55.708;37.522;2022-11-20T08:12:43;99660.34;;;4.84;49.07
63285;BME280;49409;55.708;37.522;2022-11-20T08:15:27;99686.19;;;4.97;48.82
63285;BME280;49409;55.708;37.522;2022-11-20T08:17:59;99664.91;;;4.76;48.64
63285;BME280;49409;55.708;37.522;2022-11-20T08:20:25;99672.81;;;4.85;49.21
63285;BME280;49409;55.708;37.522;2022-11-20T08:22:51;99686.25;;;5.01;48.55
63285;BME280;49409;55.708;37.522;2022-11-20T08:25:16;99680.06;;;5.04;48.97
63285;BME280;49409;55.708;37.522;2022-11-20T08:27:42;99669.84;;;4.97;48.97
63285;BME280;49409;55.708;37.522;2022-11-20T08:30:08;99702.00;;;5.15;49.22
63285;BME280;49409;55.708;37.522;2022-11-20T08:32:34;99711.41;;;5.21;48.45
63285;BME280;49409;55.708;37.522;2022-11-20T08:35:01;99653.00;;;4.88;48.08
63285;BME280;49409;55.708;37.522;2022-11-20T08:37:26;99697.03;;;5.24;48.16
63285;BME280;49409;55.708;37.522;2022-11-20T08:39:52;99688.03;;;5.20;48.43
63285;BME280;49409;55.708;37.522;2022-11-20T08:42:18;99656.63;;;5.00;48.32
63285;BME280;49409;55.708;37.522;2022-11-20T08:44:44;99692.66;;;5.16;48.47
63285;BME280;49409;55.708;37.522;2022-11-20T08:47:09;99716.22;;;5.31;48.52
63285;BME280;49409;55.708;37.522;2022-11-20T08:49:35;99707.59;;;5.26;48.70
63285;BME280;49409;55.708;37.522;2022-11-20T08:52:00;99707.63;;;5.29;48.31
63285;BME280;49409;55.708;37.522;2022-11-20T08:54:26;99708.38;;;5.26;48.74
63285;BME280;49409;55.708;37.522;2022-11-20T08:56:51;99704.84;;;5.26;48.12
63285;BME280;49409;55.708;37.522;2022-11-20T08:59:17;99731.09;;;5.38;48.25
63285;BME280;49409;55.708;37.522;2022-11-20T09:01:43;99739.19;;;5.30;48.90
63285;BME280;49409;55.708;37.522;2022-11-20T09:04:08;99729.38;;;5.22;48.90
63285;BME280;49409;55.708;37.522;2022-11-20T09:06:34;99680.50;;;4.76;48.79
63285;BME280;49409;55.708;37.522;2022-11-20T09:08:59;99755.91;;;5.25;49.05
63285;BME280;49409;55.708;37.522;2022-11-20T09:11:25;99746.47;;;5.19;49.17
63285;BME280;49409;55.708;37.522;2022-11-20T09:13:50;99739.75;;;5.13;48.83
63285;BME280;49409;55.708;37.522;2022-11-20T09:16:16;99738.69;;;5.21;48.69
63285;BME280;49409;55.708;37.522;2022-11-20T09:18:41;99765.41;;;5.39;48.75
63285;BME280;49409;55.708;37.522;2022-11-20T09:21:12;99755.47;;;5.23;49.10
63285;BME280;49409;55.708;37.522;2022-11-20T09:23:38;99748.88;;;5.24;48.81
63285;BME280;49409;55.708;37.522;2022-11-20T09:26:06;99782.13;;;5.33;49.02
63285;BME280;49409;55.708;37.522;2022-11-20T09:28:32;99781.72;;;5.31;48.92
63285;BME280;49409;55.708;37.522;2022-11-20T09:30:58;99794.28;;;5.40;49.21
63285;BME280;49409;55.708;37.522;2022-11-20T09:33:24;99777.81;;;5.32;49.20
63285;BME280;49409;55.708;37.522;2022-11-20T09:35:49;99798.66;;;5.48;48.85
63285;BME280;49409;55.708;37.522;2022-11-20T09:38:15;99798.97;;;5.43;48.82
63285;BME280;49409;55.708;37.522;2022-11-20T09:40:45;99782.03;;;5.26;49.08
63285;BME280;49409;55.708;37.522;2022-11-20T09:49:00;99811.50;;;5.44;49.78
63285;BME280;49409;55.708;37.522;2022-11-20T09:56:39;99748.59;;;5.03;49.76
63285;BME280;49409;55.708;37.522;2022-11-20T09:59:07;99798.91;;;5.35;50.06
63285;BME280;49409;55.708;37.522;2022-11-20T10:01:38;99805.19;;;5.40;50.01
63285;BME280;49409;55.708;37.522;2022-11-20T10:04:19;99752.69;;;5.16;50.17
63285;BME280;49409;55.708;37.522;2022-11-20T10:07:11;99809.69;;;5.55;50.11
63285;BME280;49409;55.708;37.522;2022-11-20T10:09:40;99802.88;;;5.42;50.08
63285;BME280;49409;55.708;37.522;2022-11-20T10:12:30;99814.59;;;5.42;50.30
63285;BME280;49409;55.708;37.522;2022-11-20T10:18:23;99810.59;;;5.36;50.18
63285;BME280;49409;55.708;37.522;2022-11-20T10:21:18;99814.41;;;5.28;50.34
63285;BME280;49409;55.708;37.522;2022-11-20T10:29:18;99818.81;;;5.09;50.54
63285;BME280;49409;55.708;37.522;2022-11-20T10:31:54;99829.59;;;4.99;50.79
63285;BME280;49409;55.708;37.522;2022-11-20T10:34:32;99807.41;;;4.73;50.30
63285;BME280;49409;55.708;37.522;2022-11-20T10:37:22;99817.78;;;4.91;51.21
63285;BME280;49409;55.708;37.522;2022-11-20T10:42:38;99809.66;;;4.68;50.46
63285;BME280;49409;55.708;37.522;2022-11-20T10:45:32;99808.88;;;4.67;51.62
63285;BME280;49409;55.708;37.522;2022-11-20T10:53:57;99809.91;;;4.86;50.26
63285;BME280;49409;55.708;37.522;2022-11-20T11:01:40;99837.88;;;4.79;50.44
63285;BME280;49409;55.708;37.522;2022-11-20T11:04:56;99851.19;;;4.84;50.29
63285;BME280;49409;55.708;37.522;2022-11-20T11:07:18;99839.47;;;4.84;51.00
63285;BME280;49409;55.708;37.522;2022-11-20T11:09:50;99811.03;;;4.58;50.72
63285;BME280;49409;55.708;37.522;2022-11-20T11:12:18;99851.13;;;4.81;50.42
63285;BME280;49409;55.708;37.522;2022-11-20T11:14:53;99862.94;;;4.88;50.42
63285;BME280;49409;55.708;37.522;2022-11-20T11:17:27;99830.84;;;4.78;50.12
63285;BME280;49409;55.708;37.522;2022-11-20T11:20:14;99854.50;;;4.97;50.45
63285;BME280;49409;55.708;37.522;2022-11-20T11:22:48;99865.72;;;4.92;49.24
63285;BME280;49409;55.708;37.522;2022-11-20T11:27:47;99873.50;;;4.90;48.85
63285;BME280;49409;55.708;37.522;2022-11-20T11:30:14;99851.69;;;4.67;49.49
63285;BME280;49409;55.708;37.522;2022-11-20T11:32:41;99850.19;;;4.46;49.78
63285;BME280;49409;55.708;37.522;2022-11-20T11:35:19;99833.53;;;4.51;49.39
63285;BME280;49409;55.708;37.522;2022-11-20T11:37:46;99852.19;;;4.49;49.52
63285;BME280;49409;55.708;37.522;2022-11-20T11:40:13;99867.94;;;4.60;50.06
63285;BME280;49409;55.708;37.522;2022-11-20T11:43:06;99859.75;;;4.83;49.18
63285;BME280;49409;55.708;37.522;2022-11-20T11:45:54;99844.63;;;4.62;49.25
63285;BME280;49409;55.708;37.522;2022-11-20T11:48:20;99850.00;;;4.59;49.08
63285;BME280;49409;55.708;37.522;2022-11-20T11:50:50;99874.41;;;4.74;49.39
63285;BME280;49409;55.708;37.522;2022-11-20T11:53:19;99867.50;;;4.81;48.68
63285;BME280;49409;55.708;37.522;2022-11-20T12:01:28;99856.91;;;4.52;48.57
63285;BME280;49409;55.708;37.522;2022-11-20T12:06:58;99883.84;;;4.57;49.19
63285;BME280;49409;55.708;37.522;2022-11-20T12:09:38;99859.09;;;4.43;48.52
63285;BME280;49409;55.708;37.522;2022-11-20T12:12:40;99881.13;;;4.57;48.85
63285;BME280;49409;55.708;37.522;2022-11-20T12:15:13;99885.19;;;4.44;49.25
63285;BME280;49409;55.708;37.522;2022-11-20T12:17:41;99886.75;;;4.45;49.17
63285;BME280;49409;55.708;37.522;2022-11-20T12:20:13;99890.94;;;4.39;49.21
63285;BME280;49409;55.708;37.522;2022-11-20T12:25:18;99887.06;;;4.40;49.47
63285;BME280;49409;55.708;37.522;2022-11-20T12:30:51;99874.59;;;4.39;49.12
63285;BME280;49409;55.708;37.522;2022-11-20T12:33:20;99885.50;;;4.39;49.73
63285;BME280;49409;55.708;37.522;2022-11-20T12:42:10;99878.34;;;4.77;48.57
63285;BME280;49409;55.708;37.522;2022-11-20T12:47:55;99869.75;;;4.29;48.93
63285;BME280;49409;55.708;37.522;2022-11-20T12:50:50;99872.63;;;4.16;49.04
63285;BME280;49409;55.708;37.522;2022-11-20T12:53:43;99870.81;;;4.01;49.49
63285;BME280;49409;55.708;37.522;2022-11-20T12:59:08;99904.31;;;4.25;49.21
63285;BME280;49409;55.708;37.522;2022-11-20T13:07:10;99836.69;;;4.07;48.79
63285;BME280;49409;55.708;37.522;2022-11-20T13:09:42;99904.56;;;4.39;48.77
63285;BME280;49409;55.708;37.522;2022-11-20T13:12:34;99913.41;;;4.55;48.68
63285;BME280;49409;55.708;37.522;2022-11-20T13:15:23;99913.00;;;4.53;48.45
63285;BME280;49409;55.708;37.522;2022-11-20T13:17:55;99884.31;;;4.40;47.62
63285;BME280;49409;55.708;37.522;2022-11-20T13:20:23;99894.81;;;4.38;48.36
63285;BME280;49409;55.708;37.522;2022-11-20T13:22:53;99888.50;;;4.34;48.29
63285;BME280;49409;55.708;37.522;2022-11-20T13:27:55;99906.88;;;4.60;48.27
63285;BME280;49409;55.708;37.522;2022-11-20T13:30:26;99888.03;;;4.51;47.85
63285;BME280;49409;55.708;37.522;2022-11-20T13:33:20;99899.13;;;4.62;48.37
63285;BME280;49409;55.708;37.522;2022-11-20T13:36:21;99924.63;;;4.73;47.65
63285;BME280;49409;55.708;37.522;2022-11-20T13:38:50;99921.72;;;4.63;48.08
63285;BME280;49409;55.708;37.522;2022-11-20T13:41:36;99927.84;;;4.79;48.05
63285;BME280;49409;55.708;37.522;2022-11-20T13:46:41;99902.94;;;4.57;48.03
63285;BME280;49409;55.708;37.522;2022-11-20T13:49:14;99925.91;;;4.56;48.09
63285;BME280;49409;55.708;37.522;2022-11-20T13:51:50;99929.47;;;4.61;48.48
63285;BME280;49409;55.708;37.522;2022-11-20T13:57:12;99943.31;;;4.52;48.75
63285;BME280;49409;55.708;37.522;2022-11-20T13:59:55;99946.19;;;4.59;47.92
63285;BME280;49409;55.708;37.522;2022-11-20T14:02:23;99913.16;;;4.41;47.87
63285;BME280;49409;55.708;37.522;2022-11-20T14:04:52;99933.38;;;4.40;48.20
63285;BME280;49409;55.708;37.522;2022-11-20T14:07:21;99930.94;;;4.54;48.33
63285;BME280;49409;55.708;37.522;2022-11-20T14:09:54;99927.50;;;4.38;48.83
63285;BME280;49409;55.708;37.522;2022-11-20T14:12:23;99923.72;;;4.43;48.29
63285;BME280;49409;55.708;37.522;2022-11-20T14:14:53;99914.31;;;4.40;47.93
63285;BME280;49409;55.708;37.522;2022-11-20T14:19:54;99958.00;;;4.67;48.51
63285;BME280;49409;55.708;37.522;2022-11-20T14:22:24;99960.38;;;4.68;48.31
63285;BME280;49409;55.708;37.522;2022-11-20T14:25:03;99967.59;;;4.80;47.86
63285;BME280;49409;55.708;37.522;2022-11-20T14:27:33;99905.69;;;4.38;48.15
63285;BME280;49409;55.708;37.522;2022-11-20T14:30:01;99959.41;;;4.80;48.27
63285;BME280;49409;55.708;37.522;2022-11-20T14:32:29;99953.41;;;4.71;47.82
63285;BME280;49409;55.708;37.522;2022-11-20T14:34:59;99940.97;;;4.50;48.31
63285;BME280;49409;55.708;37.522;2022-11-20T14:37:31;99955.13;;;4.60;48.31